Time;durP1;ratioP1;P1;durP2;ratioP2;P2;SDS_P1;SDS_P2;PMS_P1;PMS_P2;Temp;Humidity;BMP_temperature;BMP_pressure;BME280_temperature;BME280_humidity;BME280_pressure;Samples;Min_cycle;Max_cycle;Signal;HPM_P1;HPM_P2
2021/06/22 00:00:30;;;;;;;9.93;7.23;;;18.40;99.90;;;;;;5035665;28;20501;-68
2021/06/22 00:02:56;;;;;;;9.27;7.40;;;18.40;99.90;;;;;;5035358;28;20471;-68
2021/06/22 00:05:25;;;;;;;7.47;6.80;;;18.40;99.90;;;;;;5035802;28;20410;-68
2021/06/22 00:07:54;;;;;;;10.53;7.83;;;18.40;99.90;;;;;;5034802;28;20427;-68
2021/06/22 00:10:22;;;;;;;9.30;8.33;;;18.40;99.90;;;;;;5035131;28;20503;-68
2021/06/22 00:12:49;;;;;;;9.80;7.80;;;18.40;99.90;;;;;;5035505;28;20437;-68
2021/06/22 00:15:17;;;;;;;9.40;7.23;;;18.40;99.90;;;;;;5035384;28;20458;-67
2021/06/22 00:17:43;;;;;;;9.90;8.87;;;18.40;99.90;;;;;;5035112;28;20500;-68
2021/06/22 00:20:11;;;;;;;9.70;8.60;;;18.40;99.90;;;;;;5035770;28;20422;-70
2021/06/22 00:22:38;;;;;;;10.27;8.63;;;18.40;99.90;;;;;;5035132;28;20417;-69
2021/06/22 00:25:06;;;;;;;11.70;10.40;;;18.40;99.90;;;;;;5035557;28;20474;-67
2021/06/22 00:27:32;;;;;;;8.20;7.40;;;18.50;99.90;;;;;;5034257;28;20430;-68
2021/06/22 00:29:57;;;;;;;11.90;8.40;;;18.50;99.90;;;;;;5033940;28;20461;-69
2021/06/22 00:32:23;;;;;;;10.23;9.13;;;18.50;99.90;;;;;;5035007;28;20193;-69
2021/06/22 00:34:49;;;;;;;8.30;7.50;;;18.60;99.90;;;;;;5034529;28;20459;-69
2021/06/22 00:37:15;;;;;;;14.47;7.90;;;18.70;99.90;;;;;;5032939;28;20178;-68
2021/06/22 00:39:45;;;;;;;8.23;7.40;;;18.70;99.90;;;;;;5035078;28;20210;-69
2021/06/22 00:42:12;;;;;;;8.80;8.00;;;18.60;99.90;;;;;;5034900;28;20420;-68
2021/06/22 00:44:58;;;;;;;10.60;8.90;;;18.70;99.90;;;;;;5035027;28;20413;-68
2021/06/22 00:47:26;;;;;;;11.30;8.20;;;18.70;99.90;;;;;;5034489;28;20425;-67
2021/06/22 00:49:53;;;;;;;8.07;7.37;;;18.70;99.90;;;;;;5034893;28;20491;-67
2021/06/22 00:52:28;;;;;;;9.57;8.67;;;18.70;99.90;;;;;;5033784;28;20746;-67
2021/06/22 00:54:55;;;;;;;10.20;9.17;;;18.80;99.90;;;;;;5034881;28;20484;-68
2021/06/22 00:57:22;;;;;;;9.97;8.97;;;18.70;99.90;;;;;;5034244;28;20952;-68
2021/06/22 00:59:48;;;;;;;11.10;9.73;;;18.80;99.90;;;;;;5034603;28;21063;-69
2021/06/22 01:02:15;;;;;;;9.83;8.37;;;18.80;99.90;;;;;;5034355;28;20419;-68
2021/06/22 01:04:41;;;;;;;9.30;7.13;;;18.80;99.90;;;;;;5034604;28;20428;-68
2021/06/22 01:07:10;;;;;;;10.60;9.50;;;18.70;99.90;;;;;;5034118;28;20418;-69
2021/06/22 01:09:36;;;;;;;9.80;8.80;;;18.70;99.90;;;;;;5034344;28;20467;-69
2021/06/22 01:12:01;;;;;;;10.77;9.67;;;18.70;99.90;;;;;;5034168;28;20428;-69
2021/06/22 01:14:28;;;;;;;9.20;8.20;;;18.70;99.90;;;;;;5034149;28;20207;-69
2021/06/22 01:16:54;;;;;;;9.30;8.40;;;18.70;99.90;;;;;;5034051;28;20214;-69
2021/06/22 01:19:20;;;;;;;8.30;7.70;;;18.60;99.90;;;;;;5033870;28;20427;-68
2021/06/22 01:21:47;;;;;;;9.73;6.00;;;18.60;99.90;;;;;;5033916;28;20426;-69
2021/06/22 01:24:15;;;;;;;5.90;5.40;;;18.60;99.90;;;;;;5034391;28;20815;-69
2021/06/22 01:26:46;;;;;;;6.40;5.90;;;18.60;99.90;;;;;;5033704;28;20784;-69
2021/06/22 01:29:12;;;;;;;4.70;4.30;;;18.60;99.90;;;;;;5033527;28;20448;-69
2021/06/22 01:31:38;;;;;;;5.20;4.67;;;18.60;99.90;;;;;;5033787;28;20923;-69
2021/06/22 01:34:04;;;;;;;4.10;3.70;;;18.50;99.90;;;;;;5034215;28;20746;-69
2021/06/22 01:36:32;;;;;;;3.80;3.50;;;18.40;99.90;;;;;;5033442;28;20425;-69
2021/06/22 01:38:57;;;;;;;6.17;4.07;;;18.30;99.90;;;;;;5033555;28;20182;-69
2021/06/22 01:41:23;;;;;;;5.80;4.00;;;18.30;99.90;;;;;;5033265;28;20431;-69
2021/06/22 01:43:49;;;;;;;3.63;3.33;;;18.30;99.90;;;;;;5034112;28;20174;-69
2021/06/22 01:46:15;;;;;;;7.67;3.63;;;18.40;99.90;;;;;;5033578;28;20433;-68
2021/06/22 01:48:41;;;;;;;3.07;2.83;;;18.40;99.90;;;;;;5033342;28;20434;-70
2021/06/22 01:51:07;;;;;;;3.90;3.60;;;18.40;99.90;;;;;;5032771;28;20192;-69
2021/06/22 01:53:32;;;;;;;3.90;2.90;;;18.40;99.90;;;;;;5033805;28;20203;-69
2021/06/22 01:55:58;;;;;;;2.53;2.43;;;18.40;99.90;;;;;;5033361;28;20210;-69
2021/06/22 01:58:24;;;;;;;3.50;3.20;;;18.30;99.90;;;;;;5033180;28;20172;-69
2021/06/22 02:00:54;;;;;;;3.70;3.30;;;18.30;99.90;;;;;;5033032;28;20171;-69
2021/06/22 02:03:24;;;;;;;4.13;3.53;;;18.30;99.90;;;;;;5033531;28;20418;-69
2021/06/22 02:05:50;;;;;;;3.93;3.20;;;18.30;99.90;;;;;;5031883;28;20515;-69
2021/06/22 02:08:16;;;;;;;3.07;2.77;;;18.30;99.90;;;;;;5033079;28;20768;-69
2021/06/22 02:10:43;;;;;;;2.93;2.63;;;18.30;99.90;;;;;;5031761;28;20453;-69
2021/06/22 02:13:09;;;;;;;3.03;2.80;;;18.30;99.90;;;;;;5032361;28;20765;-69
2021/06/22 02:15:35;;;;;;;5.13;2.80;;;18.30;99.90;;;;;;5032764;28;20460;-70
2021/06/22 02:18:01;;;;;;;3.30;3.00;;;18.30;99.90;;;;;;5033229;28;20431;-69
2021/06/22 02:20:27;;;;;;;3.27;3.07;;;18.30;99.90;;;;;;5033784;28;20214;-68
2021/06/22 02:22:53;;;;;;;3.00;2.70;;;18.20;99.90;;;;;;5041023;28;20439;-69
2021/06/22 02:25:19;;;;;;;2.47;2.27;;;18.20;99.90;;;;;;5033302;28;20772;-69
2021/06/22 02:27:45;;;;;;;3.47;3.17;;;18.20;99.90;;;;;;5032809;28;20420;-70
2021/06/22 02:30:17;;;;;;;3.13;2.93;;;18.20;99.90;;;;;;5033183;28;20194;-69
2021/06/22 02:32:43;;;;;;;3.67;3.30;;;18.20;99.90;;;;;;5033079;28;20183;-70
2021/06/22 02:35:10;;;;;;;3.73;3.30;;;18.30;99.90;;;;;;5033209;28;20456;-72
2021/06/22 02:37:38;;;;;;;4.63;2.70;;;18.30;99.90;;;;;;5032382;28;20421;-69
2021/06/22 02:40:05;;;;;;;3.73;3.43;;;18.30;99.90;;;;;;5032031;28;20468;-69
2021/06/22 02:42:31;;;;;;;3.90;3.60;;;18.30;99.90;;;;;;5032824;28;20424;-69
2021/06/22 02:44:57;;;;;;;3.63;3.33;;;18.20;99.90;;;;;;5033487;28;20403;-69
2021/06/22 02:47:23;;;;;;;2.80;2.60;;;18.10;99.90;;;;;;5032474;28;20671;-68
2021/06/22 02:49:50;;;;;;;2.97;2.70;;;18.10;99.90;;;;;;5033314;28;20191;-68
2021/06/22 02:52:15;;;;;;;3.60;3.27;;;18.00;99.90;;;;;;5032502;28;20426;-69
2021/06/22 02:54:41;;;;;;;6.50;3.17;;;18.10;99.90;;;;;;5031625;28;20993;-68
2021/06/22 02:57:08;;;;;;;2.87;2.67;;;18.20;99.90;;;;;;5032560;28;20271;-68
2021/06/22 02:59:35;;;;;;;6.20;4.97;;;18.20;99.90;;;;;;5036238;28;20200;-69
2021/06/22 03:02:01;;;;;;;3.30;3.00;;;18.20;99.90;;;;;;5037087;28;20783;-68
2021/06/22 03:04:27;;;;;;;3.13;2.90;;;18.20;99.90;;;;;;5035315;28;20433;-69
2021/06/22 03:06:53;;;;;;;3.03;2.77;;;18.20;99.90;;;;;;5036549;28;20544;-68
2021/06/22 03:09:19;;;;;;;2.80;2.60;;;18.30;99.90;;;;;;5035954;28;20546;-69
2021/06/22 03:11:44;;;;;;;3.40;3.10;;;18.30;99.90;;;;;;5036776;28;20275;-69
2021/06/22 03:14:10;;;;;;;5.03;3.00;;;18.30;99.90;;;;;;5036332;28;20190;-68
2021/06/22 03:16:36;;;;;;;3.07;2.77;;;18.30;99.90;;;;;;5036084;28;20664;-68
2021/06/22 03:19:02;;;;;;;3.10;2.90;;;18.30;99.90;;;;;;5034766;28;20479;-68
2021/06/22 03:21:28;;;;;;;6.33;3.03;;;18.30;99.90;;;;;;5036009;28;20265;-68
2021/06/22 03:23:53;;;;;;;2.30;2.10;;;18.40;99.90;;;;;;5036624;28;20823;-68
2021/06/22 03:26:19;;;;;;;4.30;2.60;;;18.30;99.90;;;;;;5036562;28;20174;-67
2021/06/22 03:28:45;;;;;;;2.57;2.47;;;18.30;99.90;;;;;;5035971;28;20273;-68
2021/06/22 03:31:12;;;;;;;3.50;3.20;;;18.20;99.90;;;;;;5035478;28;20179;-67
2021/06/22 03:33:37;;;;;;;4.07;3.77;;;18.20;99.90;;;;;;5036243;28;20274;-68
2021/06/22 03:36:04;;;;;;;3.37;3.17;;;18.20;99.90;;;;;;5036113;28;20547;-68
2021/06/22 03:38:29;;;;;;;4.13;3.17;;;18.10;99.90;;;;;;5035620;28;20191;-68
2021/06/22 03:40:55;;;;;;;4.90;2.93;;;18.10;99.90;;;;;;5035708;28;20547;-68
2021/06/22 03:43:22;;;;;;;3.20;2.90;;;18.00;99.90;;;;;;5031642;28;20258;-68
2021/06/22 03:45:48;;;;;;;4.23;3.93;;;18.00;99.90;;;;;;5016351;28;20210;-68
2021/06/22 03:48:14;;;;;;;4.20;3.80;;;18.00;99.90;;;;;;5034146;28;20503;-68
2021/06/22 03:50:40;;;;;;;4.10;3.70;;;18.00;99.90;;;;;;5035985;28;20765;-68
2021/06/22 03:53:05;;;;;;;5.57;3.13;;;17.90;99.90;;;;;;5035173;28;20969;-68
2021/06/22 03:55:31;;;;;;;4.63;3.60;;;18.00;99.90;;;;;;5036012;28;20448;-68
2021/06/22 03:58:00;;;;;;;4.27;2.70;;;18.00;99.90;;;;;;5035317;28;20613;-68
2021/06/22 04:00:26;;;;;;;3.87;3.40;;;18.00;99.90;;;;;;5035443;28;20446;-68
2021/06/22 04:02:54;;;;;;;3.80;3.50;;;18.10;99.90;;;;;;5035850;28;20456;-68
2021/06/22 04:05:19;;;;;;;3.37;3.07;;;18.10;99.90;;;;;;5035518;28;20425;-68
2021/06/22 04:07:45;;;;;;;3.17;2.97;;;18.10;99.90;;;;;;5035185;28;20940;-69
2021/06/22 04:10:11;;;;;;;5.57;4.93;;;18.20;99.90;;;;;;5032661;28;20206;-69
2021/06/22 04:12:37;;;;;;;6.40;5.37;;;18.20;99.90;;;;;;5035699;28;20175;-68
2021/06/22 04:15:03;;;;;;;6.70;5.30;;;18.20;99.90;;;;;;5035040;28;20827;-69
2021/06/22 04:17:29;;;;;;;6.27;5.30;;;18.20;99.90;;;;;;5035092;28;20199;-68
2021/06/22 04:19:55;;;;;;;5.80;4.80;;;18.10;99.90;;;;;;5035433;28;20480;-68
2021/06/22 04:22:20;;;;;;;6.40;5.80;;;18.10;99.90;;;;;;5035139;28;20642;-71
2021/06/22 04:24:46;;;;;;;7.07;6.17;;;18.00;99.90;;;;;;5035101;28;20175;-68
2021/06/22 04:27:12;;;;;;;5.70;5.10;;;18.10;99.90;;;;;;5035172;28;20178;-69
2021/06/22 04:29:37;;;;;;;9.73;6.07;;;18.10;99.90;;;;;;5035057;28;20201;-69
2021/06/22 04:32:04;;;;;;;6.10;5.50;;;18.10;99.90;;;;;;5035639;28;20404;-69
2021/06/22 04:34:29;;;;;;;4.70;4.30;;;18.20;99.90;;;;;;5034884;28;20199;-69
2021/06/22 04:36:55;;;;;;;9.13;8.10;;;18.20;99.90;;;;;;5034835;28;20506;-69
2021/06/22 04:39:21;;;;;;;10.80;8.10;;;18.30;99.90;;;;;;5034456;28;20218;-68
2021/06/22 04:41:47;;;;;;;10.77;8.90;;;18.20;99.90;;;;;;5035114;28;20199;-69
2021/06/22 04:44:13;;;;;;;11.63;8.50;;;18.20;99.90;;;;;;5034423;28;20511;-69
2021/06/22 04:46:38;;;;;;;10.20;8.33;;;18.30;99.90;;;;;;5034994;28;20173;-68
2021/06/22 04:49:04;;;;;;;10.50;9.47;;;18.20;99.90;;;;;;5034258;28;20438;-68
2021/06/22 04:51:30;;;;;;;10.97;8.23;;;18.20;99.90;;;;;;5035030;28;20162;-69
2021/06/22 04:53:56;;;;;;;10.17;8.67;;;18.30;99.90;;;;;;5034728;28;20652;-68
2021/06/22 04:56:23;;;;;;;14.97;9.10;;;18.20;99.90;;;;;;5034790;28;20209;-68
2021/06/22 04:58:50;;;;;;;9.60;8.60;;;18.30;99.90;;;;;;5033598;28;20282;-69
2021/06/22 05:01:16;;;;;;;10.00;9.00;;;18.30;99.90;;;;;;5034818;28;20806;-68
2021/06/22 05:03:42;;;;;;;13.27;10.13;;;18.40;99.90;;;;;;5034330;28;20522;-66
2021/06/22 05:06:08;;;;;;;11.03;9.23;;;18.40;99.90;;;;;;5034836;28;20174;-67
2021/06/22 05:08:33;;;;;;;12.13;8.73;;;18.40;99.90;;;;;;5033870;28;20207;-68
2021/06/22 05:10:59;;;;;;;11.03;9.90;;;18.50;99.90;;;;;;5034322;28;20703;-67
2021/06/22 05:13:26;;;;;;;9.33;8.43;;;18.50;99.90;;;;;;5033834;28;20225;-67
2021/06/22 05:15:51;;;;;;;10.27;9.27;;;18.60;99.90;;;;;;5034062;28;20477;-67
2021/06/22 05:18:17;;;;;;;12.30;10.17;;;18.60;99.90;;;;;;5033834;28;20411;-67
2021/06/22 05:20:43;;;;;;;9.97;8.97;;;18.60;99.90;;;;;;5033476;28;20266;-67
2021/06/22 05:23:08;;;;;;;8.03;7.23;;;18.70;99.90;;;;;;5034446;28;20944;-67
2021/06/22 05:25:34;;;;;;;9.43;8.27;;;18.80;99.90;;;;;;5034041;28;20187;-67
2021/06/22 05:28:00;;;;;;;8.90;8.00;;;18.80;99.90;;;;;;5033204;28;20224;-68
2021/06/22 05:30:26;;;;;;;9.00;8.13;;;19.00;99.90;;;;;;5032428;28;20238;-69
2021/06/22 05:32:51;;;;;;;13.00;8.53;;;19.00;99.90;;;;;;5033631;28;20192;-68
2021/06/22 05:35:17;;;;;;;9.83;8.30;;;19.10;99.90;;;;;;5034173;28;20196;-68
2021/06/22 05:37:42;;;;;;;9.67;8.77;;;19.20;99.90;;;;;;5033530;28;20180;-68
2021/06/22 05:40:09;;;;;;;8.17;7.30;;;19.50;99.90;;;;;;5034032;28;20241;-67
2021/06/22 05:42:35;;;;;;;7.87;7.07;;;19.70;99.90;;;;;;5033704;28;20215;-67
2021/06/22 05:45:01;;;;;;;5.77;5.27;;;19.80;99.90;;;;;;5033855;28;20798;-67
2021/06/22 05:47:26;;;;;;;7.40;6.57;;;20.00;99.90;;;;;;5033460;28;21142;-67
2021/06/22 05:49:52;;;;;;;7.43;6.70;;;20.00;99.90;;;;;;5033722;28;20421;-68
2021/06/22 05:52:18;;;;;;;7.10;6.40;;;20.10;99.90;;;;;;5033473;28;20176;-67
2021/06/22 05:54:43;;;;;;;5.30;4.90;;;20.10;99.90;;;;;;5033834;28;20213;-67
2021/06/22 05:57:10;;;;;;;7.70;6.70;;;20.20;99.90;;;;;;5033099;28;20568;-67
2021/06/22 05:59:36;;;;;;;6.80;6.20;;;20.30;99.90;;;;;;5033534;28;20588;-69
2021/06/22 06:02:01;;;;;;;6.37;5.50;;;20.30;99.90;;;;;;5033788;28;20429;-67
2021/06/22 06:04:29;;;;;;;6.23;5.73;;;20.40;99.90;;;;;;5033334;28;20253;-67
2021/06/22 06:06:55;;;;;;;6.87;6.27;;;20.40;99.90;;;;;;5033404;28;20261;-67
2021/06/22 06:09:22;;;;;;;6.33;5.67;;;20.50;99.90;;;;;;5032889;28;20767;-65
2021/06/22 06:11:48;;;;;;;6.80;6.10;;;20.50;99.90;;;;;;5033554;28;20540;-65
2021/06/22 06:14:13;;;;;;;6.30;5.70;;;20.60;99.90;;;;;;5033497;28;20851;-66
2021/06/22 06:16:39;;;;;;;6.70;6.10;;;20.70;99.90;;;;;;5033476;28;20240;-64
2021/06/22 06:19:05;;;;;;;6.10;5.50;;;20.80;99.90;;;;;;5032843;28;20190;-65
2021/06/22 06:21:30;;;;;;;7.53;5.60;;;20.80;99.90;;;;;;5033268;28;20182;-66
2021/06/22 06:23:57;;;;;;;7.23;6.53;;;20.90;99.90;;;;;;5033525;28;20178;-67
2021/06/22 06:26:25;;;;;;;7.20;6.50;;;20.90;99.90;;;;;;5033548;28;20174;-67
2021/06/22 06:28:53;;;;;;;7.20;6.43;;;21.00;99.90;;;;;;5032420;28;20769;-65
2021/06/22 06:31:21;;;;;;;5.63;5.17;;;20.90;99.90;;;;;;5033448;28;20784;-66
2021/06/22 06:33:47;;;;;;;10.17;6.90;;;21.00;99.90;;;;;;5032426;28;20408;-67
2021/06/22 06:36:13;;;;;;;6.40;5.80;;;21.10;99.90;;;;;;5033119;28;20543;-65
2021/06/22 06:38:38;;;;;;;9.50;5.80;;;21.10;99.90;;;;;;5032819;28;20428;-65
2021/06/22 06:41:04;;;;;;;6.90;6.20;;;21.30;99.90;;;;;;5033056;28;20214;-65
2021/06/22 06:43:30;;;;;;;9.03;6.00;;;21.30;99.90;;;;;;5032860;28;20177;-66
2021/06/22 06:45:55;;;;;;;7.87;7.07;;;21.40;99.90;;;;;;5033056;28;20560;-67
2021/06/22 06:48:23;;;;;;;8.60;6.10;;;21.50;99.90;;;;;;5032966;28;20534;-67
2021/06/22 06:50:48;;;;;;;6.40;5.80;;;21.50;99.90;;;;;;5033304;28;20228;-67
2021/06/22 06:53:14;;;;;;;8.67;7.67;;;21.50;99.90;;;;;;5033187;28;20954;-67
2021/06/22 06:55:43;;;;;;;12.93;6.83;;;21.50;99.90;;;;;;5032883;28;20677;-67
2021/06/22 06:58:09;;;;;;;5.97;5.40;;;21.50;99.90;;;;;;5032275;28;20179;-66
2021/06/22 07:00:38;;;;;;;6.53;5.77;;;21.50;99.90;;;;;;5032951;28;20772;-68
2021/06/22 07:03:05;;;;;;;7.37;6.57;;;21.50;99.90;;;;;;5032982;28;20903;-69
2021/06/22 07:05:31;;;;;;;17.67;13.10;;;21.50;99.90;;;;;;5031755;28;20907;-69
2021/06/22 07:07:59;;;;;;;10.73;7.00;;;21.50;99.90;;;;;;5032562;28;20492;-67
2021/06/22 07:10:25;;;;;;;9.43;7.53;;;21.50;99.90;;;;;;5032555;28;20539;-69
2021/06/22 07:12:53;;;;;;;7.03;6.43;;;21.50;99.90;;;;;;5032668;28;20383;-70
2021/06/22 07:15:19;;;;;;;7.27;6.57;;;21.60;99.90;;;;;;5032746;28;20456;-69
2021/06/22 07:17:44;;;;;;;7.93;7.13;;;21.60;99.90;;;;;;5030611;28;20484;-69
2021/06/22 07:20:11;;;;;;;8.70;6.50;;;21.80;99.90;;;;;;5032362;28;20196;-70
2021/06/22 07:22:36;;;;;;;8.47;7.60;;;21.90;99.90;;;;;;5032868;28;20171;-69
2021/06/22 07:25:04;;;;;;;9.30;7.47;;;22.00;99.90;;;;;;5032830;28;20423;-70
2021/06/22 07:27:30;;;;;;;7.23;6.63;;;22.00;99.90;;;;;;5032525;28;20596;-70
2021/06/22 07:29:55;;;;;;;8.70;6.30;;;22.20;99.90;;;;;;5032872;28;20492;-70
2021/06/22 07:32:22;;;;;;;5.53;5.03;;;22.20;99.90;;;;;;5031415;28;20508;-70
2021/06/22 07:34:47;;;;;;;4.80;4.40;;;22.30;99.90;;;;;;5032288;28;20252;-70
2021/06/22 07:37:13;;;;;;;6.00;5.60;;;22.30;99.90;;;;;;5031098;28;20429;-70
2021/06/22 07:39:39;;;;;;;5.30;4.80;;;22.40;99.90;;;;;;5031484;28;20737;-69
2021/06/22 07:42:04;;;;;;;6.47;5.97;;;22.50;99.90;;;;;;5032604;28;20665;-69
2021/06/22 07:44:30;;;;;;;6.47;5.97;;;22.60;99.90;;;;;;5033284;28;20173;-70
2021/06/22 07:46:56;;;;;;;6.10;5.60;;;22.80;99.90;;;;;;5035258;28;20629;-70
2021/06/22 07:49:21;;;;;;;7.07;6.00;;;22.90;99.90;;;;;;5034897;28;20217;-69
2021/06/22 07:51:47;;;;;;;7.93;7.23;;;23.00;99.90;;;;;;5035668;28;20185;-68
2021/06/22 07:54:13;;;;;;;6.97;6.27;;;23.30;99.90;;;;;;5035689;28;20244;-68
2021/06/22 07:56:40;;;;;;;6.40;5.80;;;23.70;99.90;;;;;;5035528;28;20640;-68
2021/06/22 07:59:05;;;;;;;6.20;5.60;;;24.10;99.90;;;;;;5035436;28;20819;-69
2021/06/22 08:01:31;;;;;;;6.43;5.60;;;24.30;99.90;;;;;;5035894;28;20380;-68
2021/06/22 08:03:57;;;;;;;6.00;5.20;;;24.30;99.90;;;;;;5034643;28;20605;-68
2021/06/22 08:06:23;;;;;;;7.10;6.30;;;24.30;99.90;;;;;;5035889;28;20166;-68
2021/06/22 08:08:49;;;;;;;6.27;5.73;;;24.30;99.90;;;;;;5034031;28;20195;-68
2021/06/22 08:11:14;;;;;;;6.27;5.77;;;24.30;99.90;;;;;;5035592;28;20418;-69
2021/06/22 08:13:40;;;;;;;6.83;4.90;;;24.00;99.90;;;;;;5035662;28;20315;-68
2021/06/22 08:16:06;;;;;;;6.90;6.20;;;23.70;99.90;;;;;;5035522;28;20209;-68
2021/06/22 08:18:35;;;;;;;5.27;4.70;;;23.40;99.90;;;;;;5035299;28;20216;-68
2021/06/22 08:21:09;;;;;;;6.10;5.50;;;23.30;99.90;;;;;;5035546;28;20170;-68
2021/06/22 08:23:34;;;;;;;5.30;4.80;;;23.20;99.90;;;;;;5035127;28;20404;-68
2021/06/22 08:26:03;;;;;;;7.30;6.20;;;23.10;99.90;;;;;;5035024;28;20407;-68
2021/06/22 08:28:29;;;;;;;7.13;6.37;;;23.00;99.90;;;;;;5034762;28;20232;-68
2021/06/22 08:30:54;;;;;;;7.13;6.43;;;22.90;99.90;;;;;;5035256;28;20916;-68
2021/06/22 08:33:20;;;;;;;7.30;5.47;;;22.80;99.90;;;;;;5034038;28;20417;-69
2021/06/22 08:35:46;;;;;;;7.60;6.80;;;22.70;99.90;;;;;;5035779;28;20200;-68
2021/06/22 08:38:13;;;;;;;6.60;5.50;;;22.70;99.90;;;;;;5033449;28;20199;-69
2021/06/22 08:40:42;;;;;;;6.73;6.03;;;22.70;99.90;;;;;;5034960;28;20466;-69
2021/06/22 08:43:10;;;;;;;6.57;5.93;;;22.80;99.90;;;;;;5035484;28;20417;-68
2021/06/22 08:45:37;;;;;;;6.20;5.60;;;23.00;99.90;;;;;;5035279;28;20405;-68
2021/06/22 08:48:05;;;;;;;6.03;5.27;;;23.00;99.90;;;;;;5034643;28;20382;-68
2021/06/22 08:50:31;;;;;;;7.13;5.17;;;23.00;99.90;;;;;;5035027;28;20490;-68
2021/06/22 08:52:56;;;;;;;9.20;6.20;;;22.80;99.90;;;;;;5035086;28;20488;-68
2021/06/22 08:55:25;;;;;;;6.27;5.27;;;22.80;99.90;;;;;;5033849;28;20275;-68
2021/06/22 08:57:56;;;;;;;4.80;4.27;;;22.70;99.90;;;;;;5034405;28;20528;-67
2021/06/22 09:00:22;;;;;;;6.00;5.40;;;22.60;99.90;;;;;;5034731;28;20427;-69
2021/06/22 09:03:26;;;;;;;6.50;5.80;;;22.50;99.90;;;;;;5034770;28;20428;-68
2021/06/22 09:06:03;;;;;;;6.33;5.57;;;22.40;99.90;;;;;;4942037;28;20431;-67
2021/06/22 09:08:33;;;;;;;6.53;5.93;;;22.30;99.90;;;;;;4954076;28;20630;-68
2021/06/22 09:11:06;;;;;;;6.80;6.20;;;22.20;99.90;;;;;;4954227;29;20487;-68
2021/06/22 09:13:33;;;;;;;9.10;6.87;;;22.00;99.90;;;;;;4954257;28;20846;-68
2021/06/22 09:15:59;;;;;;;8.30;7.27;;;21.90;99.90;;;;;;4954431;29;20449;-67
2021/06/22 09:18:32;;;;;;;8.60;6.77;;;21.80;99.90;;;;;;4953650;29;20387;-68
2021/06/22 09:21:00;;;;;;;6.93;6.13;;;21.60;99.90;;;;;;4954427;28;20409;-68
2021/06/22 09:23:29;;;;;;;6.83;5.90;;;21.50;99.90;;;;;;4937987;29;20496;-68
2021/06/22 09:25:56;;;;;;;8.53;6.93;;;21.40;99.90;;;;;;4954495;28;20834;-68
2021/06/22 09:28:30;;;;;;;10.80;9.07;;;21.50;99.90;;;;;;4953711;29;20424;-69
2021/06/22 09:31:01;;;;;;;8.30;7.17;;;21.60;99.90;;;;;;4954652;29;20418;-66
2021/06/22 09:33:51;;;;;;;7.03;6.30;;;21.70;99.90;;;;;;4953754;29;20431;-70
2021/06/22 09:36:28;;;;;;;5.37;4.87;;;21.80;99.90;;;;;;4983661;28;20460;-70
2021/06/22 09:39:24;;;;;;;6.90;6.30;;;22.00;99.90;;;;;;5032288;28;20983;-70
2021/06/22 09:41:52;;;;;;;7.03;6.33;;;22.20;99.90;;;;;;5021330;28;20471;-70
2021/06/22 09:44:25;;;;;;;6.93;6.23;;;22.30;99.90;;;;;;5033987;28;20412;-69
2021/06/22 09:46:53;;;;;;;7.87;6.40;;;22.30;99.90;;;;;;5034063;28;20451;-68
2021/06/22 09:49:28;;;;;;;6.97;6.37;;;22.30;99.90;;;;;;5033328;28;20484;-69
2021/06/22 09:52:08;;;;;;;7.77;6.97;;;22.30;99.90;;;;;;5033934;28;20398;-69
2021/06/22 09:54:54;;;;;;;7.13;6.30;;;22.20;99.90;;;;;;5033949;28;20482;-69
2021/06/22 09:57:21;;;;;;;13.37;9.50;;;22.30;99.90;;;;;;5031807;28;20409;-69
2021/06/22 10:00:05;;;;;;;6.30;5.70;;;22.70;99.90;;;;;;5033522;28;20972;-69
2021/06/22 10:02:57;;;;;;;7.93;6.20;;;23.00;99.90;;;;;;5033200;28;20409;-68
2021/06/22 10:05:23;;;;;;;8.50;7.67;;;23.20;99.90;;;;;;5033905;28;20420;-69
2021/06/22 10:07:57;;;;;;;7.10;6.40;;;23.40;99.90;;;;;;5032274;28;20416;-69
2021/06/22 10:10:38;;;;;;;7.40;6.50;;;23.50;99.90;;;;;;5033316;28;20235;-69
2021/06/22 10:13:04;;;;;;;7.57;6.87;;;23.60;99.90;;;;;;5032249;28;20768;-69
2021/06/22 10:15:30;;;;;;;7.00;6.30;;;23.60;99.90;;;;;;5033313;28;20507;-69
2021/06/22 10:17:56;;;;;;;7.03;6.33;;;23.50;99.90;;;;;;5031853;28;20532;-69
2021/06/22 10:20:21;;;;;;;8.23;7.00;;;23.40;99.90;;;;;;5033380;28;20440;-69
2021/06/22 10:22:48;;;;;;;7.20;5.97;;;23.30;99.90;;;;;;5033425;28;20265;-69
2021/06/22 10:25:15;;;;;;;6.90;6.30;;;23.20;99.90;;;;;;5033245;28;20174;-69
2021/06/22 10:27:41;;;;;;;8.57;6.30;;;23.20;99.90;;;;;;5032729;28;20404;-69
2021/06/22 10:30:09;;;;;;;7.77;6.10;;;23.10;99.90;;;;;;5033507;28;20492;-70
2021/06/22 10:32:35;;;;;;;6.47;5.87;;;23.00;99.90;;;;;;5032952;28;20409;-69
2021/06/22 10:35:12;;;;;;;7.27;6.57;;;22.90;99.90;;;;;;5033471;28;20972;-68
2021/06/22 10:38:03;;;;;;;6.63;5.67;;;22.70;99.90;;;;;;5032881;28;20432;-70
2021/06/22 10:40:30;;;;;;;9.33;7.93;;;22.60;99.90;;;;;;5032918;28;20448;-68
2021/06/22 10:42:57;;;;;;;6.40;5.80;;;22.50;99.90;;;;;;5033189;28;20401;-67
2021/06/22 10:45:23;;;;;;;6.73;6.10;;;22.50;99.90;;;;;;5033220;28;20925;-68
2021/06/22 10:47:54;;;;;;;7.90;6.00;;;22.50;99.90;;;;;;5031711;28;20424;-67
2021/06/22 10:50:23;;;;;;;6.50;5.90;;;22.40;99.90;;;;;;5033145;28;20192;-69
2021/06/22 10:53:02;;;;;;;6.17;5.37;;;22.20;99.90;;;;;;5033364;28;20433;-68
2021/06/22 10:55:27;;;;;;;6.70;6.00;;;22.10;99.90;;;;;;5032793;28;20457;-69
2021/06/22 10:58:08;;;;;;;9.57;6.40;;;22.00;99.90;;;;;;5032812;28;20456;-67
2021/06/22 11:00:37;;;;;;;6.87;6.20;;;21.90;99.90;;;;;;5033825;28;20273;-68
2021/06/22 11:03:11;;;;;;;6.50;5.50;;;21.80;99.90;;;;;;5032994;28;20493;-68
2021/06/22 11:05:38;;;;;;;7.27;5.70;;;21.70;99.90;;;;;;5031667;28;20409;-69
2021/06/22 11:08:13;;;;;;;6.53;5.53;;;21.70;99.90;;;;;;5032513;28;20415;-67
2021/06/22 11:11:08;;;;;;;6.80;6.10;;;21.60;99.90;;;;;;5032154;28;20468;-68
2021/06/22 11:13:47;;;;;;;6.30;4.87;;;21.50;99.90;;;;;;5032549;28;20931;-69
2021/06/22 11:16:19;;;;;;;5.73;5.20;;;21.50;99.90;;;;;;5032919;28;20498;-68
2021/06/22 11:21:29;;;;;;;6.43;5.63;;;21.50;99.90;;;;;;5036590;28;20903;-68
2021/06/22 11:24:04;;;;;;;6.83;6.13;;;21.40;99.90;;;;;;5036658;28;20425;-68
2021/06/22 11:26:51;;;;;;;4.80;4.40;;;21.40;99.90;;;;;;5036278;28;20535;-69
2021/06/22 11:29:36;;;;;;;6.53;5.93;;;21.60;99.90;;;;;;5025941;28;20978;-69
2021/06/22 11:32:02;;;;;;;7.00;6.17;;;21.60;99.90;;;;;;5036639;28;20492;-69
2021/06/22 11:34:52;;;;;;;9.27;6.60;;;21.60;99.90;;;;;;5036154;28;20416;-69
2021/06/22 11:37:19;;;;;;;6.50;5.87;;;21.70;99.90;;;;;;5035902;28;20478;-69
2021/06/22 11:40:05;;;;;;;7.47;5.60;;;21.50;99.90;;;;;;5035951;28;20424;-69
2021/06/22 11:42:36;;;;;;;6.20;5.00;;;21.40;99.90;;;;;;5036254;28;20491;-68
2021/06/22 11:45:13;;;;;;;8.53;5.50;;;21.40;99.90;;;;;;5036422;28;20496;-68
2021/06/22 11:47:39;;;;;;;7.67;6.17;;;21.30;99.90;;;;;;5034409;28;20416;-69
2021/06/22 11:50:10;;;;;;;9.20;6.90;;;21.30;99.90;;;;;;5036074;28;20436;-69
2021/06/22 11:52:41;;;;;;;6.57;5.70;;;21.20;99.90;;;;;;5036203;28;20174;-69
2021/06/22 11:55:18;;;;;;;6.70;5.70;;;21.20;99.90;;;;;;5035447;28;20449;-69
2021/06/22 11:57:56;;;;;;;6.90;5.30;;;21.20;99.90;;;;;;5035782;28;20934;-69
2021/06/22 12:00:28;;;;;;;6.63;5.60;;;21.20;99.90;;;;;;5035959;28;20500;-67
2021/06/22 12:03:08;;;;;;;6.97;5.33;;;21.10;99.90;;;;;;5036032;28;20511;-68
2021/06/22 12:05:37;;;;;;;5.90;4.70;;;21.00;99.90;;;;;;5036232;28;20454;-69
2021/06/22 12:08:05;;;;;;;9.00;5.50;;;20.90;99.90;;;;;;5034245;28;20416;-69
2021/06/22 12:10:50;;;;;;;8.40;6.30;;;20.70;99.90;;;;;;5017778;28;20471;-68
2021/06/22 12:13:39;;;;;;;6.43;3.83;;;20.70;99.90;;;;;;5035887;28;20407;-69
2021/06/22 12:16:28;;;;;;;6.80;5.60;;;20.70;99.90;;;;;;5035803;28;20426;-69
2021/06/22 12:19:00;;;;;;;4.83;4.33;;;20.60;99.90;;;;;;5033923;28;20439;-70
2021/06/22 12:21:27;;;;;;;5.23;4.73;;;20.50;99.90;;;;;;5035716;28;20409;-69
2021/06/22 12:24:07;;;;;;;8.03;4.40;;;20.50;99.90;;;;;;5035241;28;20460;-69
2021/06/22 12:26:36;;;;;;;5.30;4.20;;;20.40;99.90;;;;;;5035425;28;20408;-69
2021/06/22 12:29:02;;;;;;;4.30;4.00;;;20.40;99.90;;;;;;5034764;28;20529;-69
2021/06/22 12:31:28;;;;;;;6.37;4.07;;;20.40;99.90;;;;;;5034030;28;20984;-69
2021/06/22 12:34:00;;;;;;;4.70;3.60;;;20.40;99.90;;;;;;5035204;28;20417;-69
2021/06/22 12:36:33;;;;;;;9.00;3.57;;;20.30;99.90;;;;;;5035571;28;20283;-69
2021/06/22 12:39:00;;;;;;;4.00;3.70;;;20.20;99.90;;;;;;5035153;28;20825;-68
2021/06/22 12:41:31;;;;;;;4.30;3.23;;;20.10;99.90;;;;;;5035532;28;20424;-69
2021/06/22 12:44:05;;;;;;;5.70;4.43;;;20.00;99.90;;;;;;5035507;28;20409;-69
2021/06/22 12:46:42;;;;;;;7.70;6.40;;;19.90;99.90;;;;;;5034922;28;20504;-68
2021/06/22 12:49:16;;;;;;;10.73;7.40;;;19.80;99.90;;;;;;5033584;28;20440;-69
2021/06/22 12:51:44;;;;;;;5.50;4.20;;;19.70;99.90;;;;;;5035203;28;20828;-68
2021/06/22 12:54:11;;;;;;;3.17;2.87;;;19.60;99.90;;;;;;5035061;28;20452;-68